CA-0350 weather

CLOSED St-Gabriel-De-Brandon Airport
Quebec, Canada

Public forecast

Using degrees Celsius for public forecast. Weather courtesy of forecast.io.

METAR (pilot weather report)

Closest report is Trois-Rivières Airport, 29.2 nm (54.0 km) E. Retrieved 2019/09/17 05:00 UTC (17 minutes ago):

CYRQ 170500Z AUTO 30003KT 270V360 9SM CLR 06/05 A3010 RMK SLP194

TAF (pilot weather forecast)

Closest forecast is Trois-Rivières Airport, 29.2 nm (54.0 km) E. Retrieved 2019/09/17 02:00 UTC (3 hours ago):

TAF CYRQ 170140Z 1702/1714 36005KT P6SM FEW025 TEMPO 1702/1707 BKN025 FM170700 36008KT P6SM FEW020 BKN040 TEMPO 1707/1713 BKN020 FM171300 02008KT P6SM BKN025 RMK FCST BASED ON AUTO OBS. NXT FCST BY 170800Z